Urbana, Indiana
Current Conditions -  °F | °C
As of 12:15 PM on Sunday 23 Nov 2014 (Local Time) from KHHG Reporting Station
Clear Clear  
Wind Chill: 56°   Ceiling: Unl
Heat Index: 56°   Visibility: 10mi
Dew Point: 48°   Wind: 12mph
Humidity: 74%   Direction: 170°S
Pressure: 29.77"   Gusts: NA
Location:  40.9°N, 85.79°W
Report Text: KHHG 231715Z AUTO 17010KT 10SM CLR 13/09 A2977 RMK AO2 T01320087
Loading
Personal Weather Stations






























Interactive Weather Map New forecast layout! Learn more

10-Day Weather Forecast

Advertisements
Track Severe Weather on mobile